• Home 
  • » High Street

High Street

Topic Replies Views Last post
Sticky
Sticky: Dhalgren's Greatest Hits - The Music Thread by sofaking  [ 1 2 3 … 47 ]
2312 2439347 Yesterday 02:03:37 by JetRx
Sticky
Sticky: NSFW: Picture Thread! by Dmtdust  [ 1 2 3 … 643 ]
32103 11691617 2020-02-24 17:21:53 by Johnny_Rotten
Sticky
Sticky: High Street Logos by feisty  [ 1 2 3 … 110 ]
5474 3374179 2020-01-26 09:24:50 by choad
Sticky
Sticky: **Up In No Smoke** by MSG Tripps  [ 1 2 3 … 8 ]
392 607137 2020-01-07 11:24:56 by GooberMcNutly
Sticky
Sticky: Cat Recipes by choad  [ 1 2 3 … 55 ]
2742 2706928 2019-09-22 00:41:45 by matty.the.damned
Sticky
Sticky: Rule 34 by sofaking  [ 1 2 3 … 10 ]
465 1378782 2018-02-02 18:43:50 by Emmeran
Wuhan by SpacePuppy
6 100 Yesterday 22:22:10 by BorderCount
Flu Cure? by choad
0 19 Yesterday 19:22:35 by choad
2 78 Yesterday 11:53:23 by Baywolfe
Remember This Guy? by BorderCount
7 123 Yesterday 11:50:03 by Baywolfe
Woe Bee Gone by choad
1 57 2020-02-24 11:23:25 by GooberMcNutly
Jose Can You See? by choad
3 97 2020-02-24 11:20:49 by GooberMcNutly
Florida's Poll Tax by choad
2 82 2020-02-24 11:19:22 by GooberMcNutly
Trumpgrets by Chuck Schick  [ 1 2 3 … 29 ]
1445 320874 2020-02-23 02:47:46 by matty.the.damned
Animated Gif Thread! by Zookeeper  [ 1 2 3 … 176 ]
8794 1644665 2020-02-22 15:14:45 by Fled
Random non-music videos by XregnaR  [ 1 2 3 … 31 ]
1519 1574655 2020-02-22 11:13:40 by Baywolfe
5 107 2020-02-21 18:59:31 by Emmeran
1 67 2020-02-21 14:02:44 by SpacePuppy
1 51 2020-02-21 13:12:53 by Baywolfe
2000 Year Old Men by choad
0 53 2020-02-20 19:20:12 by choad
6 289 2020-02-19 15:51:09 by Johnny_Rotten
Third Eye by choad
3 90 2020-02-19 13:48:28 by Fled
1291 1524294 2020-02-19 09:55:37 by Baywolfe
4 189 2020-02-14 23:38:26 by choad
15 625 2020-02-14 09:26:30 by Baywolfe
Newspaper Obits by choad  [ 1 2 3 … 7 ]
337 606334 2020-02-13 17:28:56 by SpacePuppy
Plutorats At Play by choad
8 284 2020-02-13 09:34:43 by choad
Banana Republic by choad
1 101 2020-02-12 17:43:43 by Baywolfe
4 177 2020-02-12 03:34:47 by BorderCount
Shit Jobs by choad
13 305 2020-02-11 19:11:19 by Mugwump
The Age Of Decadence: by SpacePuppy
4 147 2020-02-11 17:58:48 by Baywolfe
6 188 2020-02-11 12:06:32 by Baywolfe
Airbnd In Space by choad
4 154 2020-02-11 11:27:28 by GooberMcNutly
8 203 2020-02-10 21:19:29 by sharpshin
Cage does Cage by lechero
7 5544 2020-02-09 14:55:38 by choad
Peak Woke? by JetRx
21 412 2020-02-09 07:42:19 by JetRx
2 103 2020-02-09 07:27:00 by JetRx
A Commie LSD Trip by choad
4 180 2020-02-07 17:35:47 by SpacePuppy
Car thread..... by Dirckman  [ 1 2 3 … 19 ]
932 1443757 2020-02-07 14:54:06 by GooberMcNutly
Circus 2020 by SpacePuppy
4 154 2020-02-07 14:42:28 by Baywolfe
4 163 2020-02-07 13:30:23 by choad
1 100 2020-02-07 12:03:41 by GooberMcNutly
8 432 2020-02-06 19:35:53 by BorderCount
17 359 2020-02-06 16:25:56 by choad
Bikini Bottom by choad
2 142 2020-02-05 15:22:27 by choad
*facepalm* by BorderCount
0 86 2020-02-04 20:07:46 by BorderCount
Hacking Google Maps by SpacePuppy
0 77 2020-02-04 12:49:08 by SpacePuppy
0 83 2020-02-03 15:11:38 by SpacePuppy
I Broke The Internet! by SpacePuppy
0 89 2020-02-02 20:23:43 by SpacePuppy
Award Winner by choad
1 166 2020-02-01 19:01:51 by Emmeran
Teacher's Pets by MSG Tripps  [ 1 2 3 … 11 ]
504 823479 2020-02-01 18:56:45 by Emmeran
0 115 2020-01-31 09:55:14 by choad
Colorado Droned by choad
5 254 2020-01-30 20:15:18 by Baywolfe
Happy Daze by choad
19 6225 2020-01-30 14:36:04 by choad
Field Day On Twitter: by SpacePuppy
0 102 2020-01-30 12:45:18 by SpacePuppy
Sod The Streets by choad
1 154 2020-01-30 12:32:39 by choad
Immigration by SpacePuppy
4 203 2020-01-30 11:53:30 by GooberMcNutly
Hopes & Prayers by SpacePuppy
3 237 2020-01-30 11:18:21 by GooberMcNutly
Class Act by choad
3 307 2020-01-29 17:20:42 by GooberMcNutly
10 934 2020-01-29 09:54:54 by choad
  • Home 
  • » High Street

Board footer

high-street.org